createdAt,value
2023-01-26T00:00:16.399Z,100023.25
2023-01-26T00:02:45.007Z,100029.19
2023-01-26T00:05:13.685Z,100024.94
2023-01-26T00:07:45.557Z,100028.34
2023-01-26T00:10:15.228Z,100027.47
2023-01-26T00:12:43.889Z,100019.03
2023-01-26T00:15:12.766Z,100014.78
2023-01-26T00:17:41.364Z,100016.44
2023-01-26T00:20:12.296Z,100005.50
2023-01-26T00:22:41.093Z,100002.91
2023-01-26T00:25:11.808Z,99992.78
2023-01-26T00:27:40.499Z,99992.78
2023-01-26T00:30:11.172Z,99984.31
2023-01-26T00:32:40.402Z,99986.88
2023-01-26T00:35:09.989Z,99986.06
2023-01-26T00:37:38.675Z,99986.88
2023-01-26T00:40:08.762Z,99985.22
2023-01-26T00:42:39.879Z,99975.91
2023-01-26T00:45:09.739Z,99978.44
2023-01-26T00:47:39.996Z,99978.38
2023-01-26T00:50:10.784Z,99982.66
2023-01-26T00:52:40.130Z,99979.25
2023-01-26T00:55:09.668Z,99981.78
2023-01-26T00:57:39.762Z,99972.50
2023-01-26T01:00:13.724Z,99976.78
2023-01-26T01:02:42.503Z,99972.59
2023-01-26T01:05:11.453Z,99980.25
2023-01-26T01:07:40.144Z,99971.88
2023-01-26T01:10:10.784Z,99977.00
2023-01-26T01:12:41.015Z,99972.81
2023-01-26T01:15:10.938Z,99972.81
2023-01-26T01:17:41.242Z,99973.63
2023-01-26T01:20:13.131Z,99966.03
2023-01-26T01:22:43.503Z,99966.94
2023-01-26T01:25:12.967Z,99956.81
2023-01-26T01:27:43.074Z,99956.81
2023-01-26T01:30:14.256Z,99961.03
2023-01-26T01:32:44.890Z,99964.44
2023-01-26T01:35:13.503Z,99965.28
2023-01-26T01:37:42.263Z,99968.69
2023-01-26T01:40:14.410Z,99966.03
2023-01-26T01:42:49.776Z,99964.34
2023-01-26T01:45:46.265Z,99959.28
2023-01-26T01:48:25.789Z,99962.63
2023-01-26T01:50:59.019Z,99956.75
2023-01-26T01:53:34.670Z,99956.69
2023-01-26T01:56:08.737Z,99959.28
2023-01-26T01:58:42.789Z,99960.09
2023-01-26T02:01:12.049Z,99965.16
2023-01-26T02:03:42.431Z,99969.41
2023-01-26T02:06:15.954Z,99961.81
2023-01-26T02:08:48.974Z,99959.28
2023-01-26T02:11:22.240Z,99957.63
2023-01-26T02:13:53.482Z,99955.09
2023-01-26T02:16:22.727Z,99958.38
2023-01-26T02:18:51.549Z,99944.06
2023-01-26T02:21:22.947Z,99944.91
2023-01-26T02:24:08.597Z,99944.91
2023-01-26T02:26:39.504Z,99947.50
2023-01-26T02:29:11.471Z,99944.13
2023-01-26T02:31:44.698Z,99943.28
2023-01-26T02:34:13.449Z,99940.75
2023-01-26T02:36:42.692Z,99940.75
2023-01-26T02:39:25.301Z,99941.63
2023-01-26T02:42:13.682Z,99933.22
2023-01-26T02:44:43.914Z,99925.66
2023-01-26T02:47:32.189Z,99939.22
2023-01-26T02:50:00.727Z,99930.75
2023-01-26T02:52:32.056Z,99934.09
2023-01-26T02:55:26.509Z,99926.53
2023-01-26T02:57:58.450Z,99923.19
2023-01-26T03:00:29.759Z,99923.13
2023-01-26T03:03:01.157Z,99915.53
2023-01-26T03:05:30.320Z,99913.75
2023-01-26T03:07:58.946Z,99913.75
2023-01-26T03:10:33.928Z,99917.97
2023-01-26T03:13:04.173Z,99906.97
2023-01-26T03:15:48.104Z,99902.75
2023-01-26T03:18:36.599Z,99905.28
2023-01-26T03:21:26.042Z,99905.28
2023-01-26T03:24:12.402Z,99897.75
2023-01-26T03:26:59.078Z,99899.47
2023-01-26T03:29:30.040Z,99891.88
2023-01-26T03:32:01.478Z,99891.88
2023-01-26T03:34:31.278Z,99891.03
2023-01-26T03:37:00.347Z,99896.94
2023-01-26T03:39:53.646Z,99891.03
2023-01-26T03:42:39.828Z,99884.31
2023-01-26T03:45:28.638Z,99881.75
2023-01-26T03:48:24.556Z,99886.00
2023-01-26T03:51:10.667Z,99886.06
2023-01-26T03:53:56.790Z,99876.00
2023-01-26T03:56:25.690Z,99877.69
2023-01-26T03:59:07.996Z,99878.53
2023-01-26T04:01:40.164Z,99871.75
2023-01-26T04:04:29.047Z,99875.94
2023-01-26T04:07:15.213Z,99880.19
2023-01-26T04:09:49.323Z,99885.25
2023-01-26T04:12:18.510Z,99874.22
2023-01-26T04:15:17.240Z,99860.75
2023-01-26T04:18:04.986Z,99878.53
2023-01-26T04:20:51.886Z,99871.00
2023-01-26T04:23:20.839Z,99869.28
2023-01-26T04:25:51.979Z,99866.75
2023-01-26T04:28:20.770Z,99859.97
2023-01-26T04:30:49.910Z,99859.09
2023-01-26T04:33:20.500Z,99859.16
2023-01-26T04:35:49.217Z,99854.03
2023-01-26T04:38:18.836Z,99853.22
2023-01-26T04:40:54.867Z,99838.81
2023-01-26T04:43:24.101Z,99839.66
2023-01-26T04:46:00.489Z,99842.94
2023-01-26T04:48:32.699Z,99839.66
2023-01-26T04:51:05.267Z,99838.75
2023-01-26T04:53:35.248Z,99838.69
2023-01-26T04:56:04.046Z,99833.63
2023-01-26T04:58:33.835Z,99830.28
2023-01-26T05:01:03.202Z,99836.16
2023-01-26T05:03:34.272Z,99830.28
2023-01-26T05:06:02.918Z,99833.63
2023-01-26T05:08:32.176Z,99830.28
2023-01-26T05:11:01.991Z,99822.69
2023-01-26T05:13:48.419Z,99824.47
2023-01-26T05:16:34.181Z,99824.47
2023-01-26T05:19:21.628Z,99820.22
2023-01-26T05:21:56.953Z,99816.91
2023-01-26T05:24:25.716Z,99820.28
2023-01-26T05:27:25.033Z,99815.28
2023-01-26T05:30:00.476Z,99817.75
2023-01-26T05:32:30.869Z,99823.69
2023-01-26T05:35:00.928Z,99828.75
2023-01-26T05:37:31.690Z,99828.75
2023-01-26T05:40:00.678Z,99832.94
2023-01-26T05:42:29.670Z,99834.63
2023-01-26T05:45:23.442Z,99837.22
2023-01-26T05:47:57.543Z,99841.41
2023-01-26T05:50:27.651Z,99844.81
2023-01-26T05:53:15.197Z,99839.00
2023-01-26T05:55:45.103Z,99841.53
2023-01-26T05:58:14.567Z,99838.13
2023-01-26T06:00:43.305Z,99839.88
2023-01-26T06:03:18.983Z,99844.13
2023-01-26T06:05:56.064Z,99843.28
2023-01-26T06:08:34.333Z,99844.19
2023-01-26T06:11:22.929Z,99848.41
2023-01-26T06:14:03.910Z,99861.91
2023-01-26T06:16:32.693Z,99855.19
2023-01-26T06:19:02.093Z,99861.91
2023-01-26T06:21:32.777Z,99860.25
2023-01-26T06:24:01.686Z,99873.72
2023-01-26T06:26:30.526Z,99863.66
2023-01-26T06:29:00.418Z,99876.31
2023-01-26T06:31:33.012Z,99870.38
2023-01-26T06:34:03.092Z,99877.97
2023-01-26T06:36:33.281Z,99871.19
2023-01-26T06:39:02.733Z,99872.03
2023-01-26T06:41:31.442Z,99865.31
2023-01-26T06:44:00.215Z,99867.84
2023-01-26T06:46:28.889Z,99863.66
2023-01-26T06:48:57.626Z,99871.25
2023-01-26T06:52:00.231Z,99871.31
2023-01-26T06:54:51.078Z,99862.09
2023-01-26T06:57:27.421Z,99860.44
2023-01-26T06:59:57.663Z,99871.41
2023-01-26T07:02:35.271Z,99858.75
2023-01-26T07:05:04.089Z,99858.69
2023-01-26T07:07:34.088Z,99863.78
2023-01-26T07:10:02.830Z,99859.56
2023-01-26T07:12:40.562Z,99876.44
2023-01-26T07:15:11.468Z,99867.13
2023-01-26T07:17:40.334Z,99862.09
2023-01-26T07:20:11.188Z,99870.47
2023-01-26T07:22:41.399Z,99875.53
2023-01-26T07:25:10.292Z,99877.25
2023-01-26T07:27:38.935Z,99879.72
2023-01-26T07:30:10.181Z,99875.53
2023-01-26T07:32:39.003Z,99870.47
2023-01-26T07:35:08.988Z,99870.47
2023-01-26T07:37:37.626Z,99880.56
2023-01-26T07:40:10.593Z,99878.06
2023-01-26T07:42:39.353Z,99879.72
2023-01-26T07:45:20.346Z,99878.03
2023-01-26T07:47:49.195Z,99878.84
2023-01-26T07:50:18.542Z,99881.31
2023-01-26T07:52:47.181Z,99887.22
2023-01-26T07:55:17.317Z,99888.88
2023-01-26T07:57:46.387Z,99884.66
2023-01-26T08:00:16.770Z,99888.81
2023-01-26T08:02:45.579Z,99893.00
2023-01-26T08:05:14.245Z,99886.28
2023-01-26T08:07:43.062Z,99891.31
2023-01-26T08:10:14.658Z,99886.25
2023-01-26T08:12:44.690Z,99883.75
2023-01-26T08:15:13.755Z,99876.16
2023-01-26T08:17:42.476Z,99878.69
2023-01-26T08:20:14.252Z,99881.19
2023-01-26T08:22:43.036Z,99888.78
2023-01-26T08:25:12.058Z,99884.53
2023-01-26T08:27:40.722Z,99889.66
2023-01-26T08:30:13.037Z,99892.19
2023-01-26T08:32:41.917Z,99897.25
2023-01-26T08:35:11.894Z,99900.66
2023-01-26T08:37:40.485Z,99905.72
2023-01-26T08:40:11.365Z,99898.13
2023-01-26T08:42:40.103Z,99904.84
2023-01-26T08:45:11.650Z,99905.66
2023-01-26T08:47:40.259Z,99897.25
2023-01-26T08:50:10.392Z,99903.19
2023-01-26T08:52:39.261Z,99902.31
2023-01-26T08:55:08.915Z,99904.84
2023-01-26T08:57:37.683Z,99907.38
2023-01-26T09:00:07.639Z,99905.72
2023-01-26T09:02:37.874Z,99913.31
2023-01-26T09:05:07.985Z,99909.06
2023-01-26T09:07:36.602Z,99909.97
2023-01-26T09:10:06.920Z,99905.72
2023-01-26T09:12:35.595Z,99900.72
2023-01-26T09:15:05.390Z,99905.84
2023-01-26T09:17:34.005Z,99910.97
2023-01-26T09:20:04.663Z,99902.63
2023-01-26T09:22:33.417Z,99903.50
2023-01-26T09:25:02.041Z,99906.91
2023-01-26T09:27:30.732Z,99901.84
2023-01-26T09:29:59.859Z,99904.38
2023-01-26T09:32:28.565Z,99911.09
2023-01-26T09:34:57.463Z,99908.56
2023-01-26T09:37:27.689Z,99901.81
2023-01-26T09:39:56.338Z,99907.69
2023-01-26T09:42:55.777Z,99906.81
2023-01-26T09:45:32.829Z,99902.56
2023-01-26T09:48:20.279Z,99902.63
2023-01-26T09:50:55.938Z,99904.28
2023-01-26T09:53:29.861Z,99906.75
2023-01-26T09:55:58.613Z,99901.69
2023-01-26T09:58:37.069Z,99904.16
2023-01-26T10:01:14.381Z,99899.06
2023-01-26T10:03:48.733Z,99900.72
2023-01-26T10:06:26.744Z,99896.47
2023-01-26T10:09:24.949Z,99896.47
2023-01-26T10:11:57.229Z,99887.19
2023-01-26T10:14:35.158Z,99886.28
2023-01-26T10:17:07.235Z,99886.28
2023-01-26T10:19:41.218Z,99892.19
2023-01-26T10:22:17.034Z,99893.00
2023-01-26T10:24:50.836Z,99892.94
2023-01-26T10:27:19.574Z,99887.88
2023-01-26T10:29:48.225Z,99881.94
2023-01-26T10:32:19.402Z,99883.59
2023-01-26T10:34:50.212Z,99879.34
2023-01-26T10:37:23.784Z,99882.72
2023-01-26T10:40:02.228Z,99874.22
2023-01-26T10:42:33.095Z,99880.19
2023-01-26T10:45:04.865Z,99870.06
2023-01-26T10:47:33.544Z,99873.47
2023-01-26T10:50:24.222Z,99875.94
2023-01-26T10:53:01.081Z,99876.75
2023-01-26T10:55:33.162Z,99863.34
2023-01-26T10:58:02.905Z,99870.06
2023-01-26T11:00:33.955Z,99870.06
2023-01-26T11:03:10.193Z,99876.75
2023-01-26T11:05:39.523Z,99860.69
2023-01-26T11:08:35.637Z,99853.97
2023-01-26T11:11:10.410Z,99851.44
2023-01-26T11:13:39.376Z,99858.16
2023-01-26T11:16:18.724Z,99856.50
2023-01-26T11:18:58.102Z,99855.63
2023-01-26T11:21:32.426Z,99844.72
2023-01-26T11:24:07.200Z,99841.28
2023-01-26T11:27:09.894Z,99853.09
2023-01-26T11:30:28.266Z,99840.47
2023-01-26T11:33:04.293Z,99843.88
2023-01-26T11:35:45.787Z,99843.88
2023-01-26T11:38:36.522Z,99842.19
2023-01-26T11:41:24.890Z,99837.94
2023-01-26T11:44:35.351Z,99829.53
2023-01-26T11:47:18.636Z,99824.47
2023-01-26T11:50:06.981Z,99827.88
2023-01-26T11:52:50.106Z,99822.03
2023-01-26T11:55:29.839Z,99819.50
2023-01-26T11:58:14.025Z,99816.09
2023-01-26T12:00:49.584Z,99828.75
2023-01-26T12:03:26.391Z,99815.28
2023-01-26T12:06:02.780Z,99811.03
2023-01-26T12:08:39.547Z,99811.03
2023-01-26T12:11:26.244Z,99808.47
2023-01-26T12:14:04.484Z,99804.28
2023-01-26T12:16:46.002Z,99798.41
2023-01-26T12:19:29.968Z,99804.28
2023-01-26T12:22:07.662Z,99795.06
2023-01-26T12:27:36.614Z,99792.53
2023-01-26T12:30:20.022Z,99799.22
2023-01-26T12:32:50.098Z,99795.94
2023-01-26T12:35:36.740Z,99792.53
2023-01-26T12:38:17.943Z,99786.63
2023-01-26T12:41:02.824Z,99778.22
2023-01-26T12:43:48.585Z,99777.44
2023-01-26T12:46:18.794Z,99775.81
2023-01-26T12:48:52.548Z,99776.69
2023-01-26T12:51:27.357Z,99775.88
2023-01-26T12:54:00.680Z,99774.22
2023-01-26T12:56:34.961Z,99766.75
2023-01-26T12:59:39.095Z,99765.06
2023-01-26T13:02:22.164Z,99767.69
2023-01-26T13:04:52.701Z,99771.13
2023-01-26T13:07:34.759Z,99761.88
2023-01-26T13:10:30.436Z,99769.53
2023-01-26T13:13:02.528Z,99764.53
2023-01-26T13:15:33.726Z,99759.47
2023-01-26T13:18:04.205Z,99761.16
2023-01-26T13:20:51.998Z,99762.91
2023-01-26T13:23:43.207Z,99765.44
2023-01-26T13:26:42.380Z,99765.50
2023-01-26T13:29:32.959Z,99765.50
2023-01-26T13:32:22.305Z,99768.06
2023-01-26T13:34:54.843Z,99765.53
2023-01-26T13:37:30.235Z,99761.31
2023-01-26T13:40:03.896Z,99766.44
2023-01-26T13:42:39.512Z,99770.66
2023-01-26T13:45:18.449Z,99770.66
2023-01-26T13:47:50.317Z,99769.84
2023-01-26T13:50:31.821Z,99781.56
2023-01-26T13:53:02.926Z,99775.66
2023-01-26T13:55:33.877Z,99776.50
2023-01-26T13:58:12.760Z,99776.56
2023-01-26T14:00:41.979Z,99783.25
2023-01-26T14:03:23.106Z,99781.56
2023-01-26T14:05:57.486Z,99787.44
2023-01-26T14:08:31.165Z,99792.50
2023-01-26T14:11:00.736Z,99784.88
2023-01-26T14:13:34.779Z,99784.88
2023-01-26T14:16:07.586Z,99781.50
2023-01-26T14:18:36.227Z,99784.88
2023-01-26T14:21:21.506Z,99790.78
2023-01-26T14:23:57.697Z,99786.56
2023-01-26T14:26:32.414Z,99784.91
2023-01-26T14:29:03.004Z,99788.31
2023-01-26T14:31:32.449Z,99787.41
2023-01-26T14:34:01.528Z,99779.75
2023-01-26T14:36:33.182Z,99781.41
2023-01-26T14:39:03.144Z,99786.47
2023-01-26T14:41:35.231Z,99789.00
2023-01-26T14:44:06.015Z,99794.94
2023-01-26T14:46:53.743Z,99791.53
2023-01-26T14:49:31.603Z,99799.13
2023-01-26T14:52:00.621Z,99794.06
2023-01-26T14:54:33.745Z,99801.66
2023-01-26T14:57:02.797Z,99800.84
2023-01-26T14:59:38.563Z,99810.97
2023-01-26T15:02:18.688Z,99811.78
2023-01-26T15:04:53.897Z,99812.66
2023-01-26T15:07:43.866Z,99816.84
2023-01-26T15:10:36.269Z,99825.31
2023-01-26T15:13:14.675Z,99823.69
2023-01-26T15:15:48.613Z,99835.44
2023-01-26T15:18:21.895Z,99838.88
2023-01-26T15:21:00.872Z,99840.56
2023-01-26T15:23:31.821Z,99829.63
2023-01-26T15:26:10.747Z,99833.81
2023-01-26T15:28:39.773Z,99838.94
2023-01-26T15:31:09.379Z,99832.16
2023-01-26T15:33:51.546Z,99828.75
2023-01-26T15:36:34.042Z,99820.31
2023-01-26T15:39:14.083Z,99816.97
2023-01-26T15:41:46.306Z,99808.50
2023-01-26T15:44:17.523Z,99808.50
2023-01-26T15:46:46.658Z,99803.44
2023-01-26T15:49:18.349Z,99800.91
2023-01-26T15:51:47.016Z,99800.91
2023-01-26T15:54:16.027Z,99783.19
2023-01-26T15:56:46.930Z,99794.13
2023-01-26T15:59:15.582Z,99797.47
2023-01-26T16:01:44.318Z,99793.31
2023-01-26T16:04:14.652Z,99798.38
2023-01-26T16:06:43.733Z,99803.44
2023-01-26T16:09:16.219Z,99808.50
2023-01-26T16:11:51.905Z,99806.84
2023-01-26T16:14:20.911Z,99808.56
2023-01-26T16:16:49.605Z,99810.25
2023-01-26T16:19:34.391Z,99816.16
2023-01-26T16:22:03.841Z,99812.78
2023-01-26T16:24:32.560Z,99817.09
2023-01-26T16:27:02.887Z,99824.69
2023-01-26T16:29:31.678Z,99817.09
2023-01-26T16:32:01.602Z,99824.69
2023-01-26T16:34:30.386Z,99816.22
2023-01-26T16:36:59.058Z,99812.88
2023-01-26T16:39:28.286Z,99806.94
2023-01-26T16:41:56.947Z,99801.88
2023-01-26T16:44:27.009Z,99800.22
2023-01-26T16:46:55.626Z,99804.44
2023-01-26T16:49:25.709Z,99796.97
2023-01-26T16:51:54.326Z,99798.69
2023-01-26T16:54:22.931Z,99804.63
2023-01-26T16:56:51.514Z,99806.34
2023-01-26T16:59:20.125Z,99811.41
2023-01-26T17:01:50.351Z,99814.75
2023-01-26T17:04:19.010Z,99813.03
2023-01-26T17:06:47.661Z,99820.69
2023-01-26T17:09:16.286Z,99817.34
2023-01-26T17:11:44.963Z,99810.56
2023-01-26T17:14:14.040Z,99810.56
2023-01-26T17:16:42.798Z,99819.88
2023-01-26T17:19:12.784Z,99815.63
2023-01-26T17:21:41.490Z,99819.88
2023-01-26T17:24:10.898Z,99819.06
2023-01-26T17:26:39.983Z,99819.91
2023-01-26T17:29:08.881Z,99816.59
2023-01-26T17:31:37.681Z,99814.06
2023-01-26T17:34:06.547Z,99818.31
2023-01-26T17:36:36.561Z,99820.91
2023-01-26T17:39:05.715Z,99827.72
2023-01-26T17:41:34.319Z,99821.03
2023-01-26T17:44:03.008Z,99831.22
2023-01-26T17:46:31.734Z,99821.97
2023-01-26T17:49:00.328Z,99832.94
2023-01-26T17:51:28.988Z,99829.56
2023-01-26T17:53:58.981Z,99826.22
2023-01-26T17:56:27.667Z,99834.63
2023-01-26T17:58:56.795Z,99826.22
2023-01-26T18:01:27.067Z,99827.00
2023-01-26T18:03:55.967Z,99827.81
2023-01-26T18:06:24.794Z,99829.50
2023-01-26T18:08:54.329Z,99831.97
2023-01-26T18:11:24.612Z,99832.78
2023-01-26T18:13:55.455Z,99827.72
2023-01-26T18:16:24.267Z,99832.78
2023-01-26T18:18:56.356Z,99832.78
2023-01-26T18:21:27.218Z,99829.38
2023-01-26T18:23:59.093Z,99831.91
2023-01-26T18:26:32.447Z,99831.84
2023-01-26T18:29:01.356Z,99831.09
2023-01-26T18:31:32.998Z,99831.03
2023-01-26T18:34:03.659Z,99824.38
2023-01-26T18:36:32.564Z,99821.00
2023-01-26T18:39:03.481Z,99815.13
2023-01-26T18:41:35.263Z,99821.00
2023-01-26T18:44:04.266Z,99820.13
2023-01-26T18:46:33.157Z,99822.66
2023-01-26T18:49:03.117Z,99810.84
2023-01-26T18:51:34.406Z,99816.72
2023-01-26T18:54:04.251Z,99825.97
2023-01-26T18:56:36.338Z,99823.38
2023-01-26T18:59:04.994Z,99828.44
2023-01-26T19:01:34.011Z,99829.25
2023-01-26T19:04:04.069Z,99829.25
2023-01-26T19:06:33.709Z,99834.31
2023-01-26T19:09:06.805Z,99835.16
2023-01-26T19:11:39.390Z,99833.44
2023-01-26T19:14:09.434Z,99826.66
2023-01-26T19:16:38.667Z,99835.13
2023-01-26T19:19:07.262Z,99834.25
2023-01-26T19:21:35.957Z,99834.25
2023-01-26T19:24:07.146Z,99835.16
2023-01-26T19:26:37.246Z,99835.16
2023-01-26T19:29:06.443Z,99830.16
2023-01-26T19:31:36.890Z,99827.63
2023-01-26T19:34:08.156Z,99828.44
2023-01-26T19:36:38.023Z,99831.84
2023-01-26T19:39:07.700Z,99831.84
2023-01-26T19:41:39.032Z,99832.69
2023-01-26T19:44:07.922Z,99830.16
2023-01-26T19:46:36.680Z,99827.63
2023-01-26T19:49:07.241Z,99830.16
2023-01-26T19:51:35.895Z,99819.25
2023-01-26T19:54:04.930Z,99824.31
2023-01-26T19:56:36.158Z,99826.91
2023-01-26T19:59:10.159Z,99825.25
2023-01-26T20:01:38.997Z,99822.75
2023-01-26T20:04:10.632Z,99826.06
2023-01-26T20:06:39.333Z,99821.00
2023-01-26T20:09:09.321Z,99816.84
2023-01-26T20:11:38.171Z,99815.16
2023-01-26T20:14:12.246Z,99811.78
2023-01-26T20:16:41.108Z,99816.78
2023-01-26T20:19:09.737Z,99816.78
2023-01-26T20:21:40.387Z,99816.03
2023-01-26T20:24:12.297Z,99819.41
2023-01-26T20:26:42.659Z,99826.16
2023-01-26T20:29:16.297Z,99819.44
2023-01-26T20:31:46.648Z,99827.94
2023-01-26T20:34:16.514Z,99822.94
2023-01-26T20:36:45.559Z,99817.81
2023-01-26T20:39:18.568Z,99816.97
2023-01-26T20:41:47.206Z,99822.88
2023-01-26T20:44:17.322Z,99815.28
2023-01-26T20:46:46.068Z,99813.56
2023-01-26T20:49:18.622Z,99813.56
2023-01-26T20:51:49.103Z,99810.22
2023-01-26T20:54:18.784Z,99811.03
2023-01-26T20:56:48.998Z,99809.31
2023-01-26T20:59:19.604Z,99809.31
2023-01-26T21:01:48.264Z,99806.75
2023-01-26T21:04:16.949Z,99808.41
2023-01-26T21:06:45.797Z,99800.84
2023-01-26T21:09:14.461Z,99801.72
2023-01-26T21:11:43.161Z,99797.56
2023-01-26T21:14:14.057Z,99795.91
2023-01-26T21:16:44.198Z,99792.50
2023-01-26T21:19:12.929Z,99797.56
2023-01-26T21:21:41.652Z,99792.50
2023-01-26T21:24:10.417Z,99794.25
2023-01-26T21:26:39.115Z,99792.59
2023-01-26T21:29:07.990Z,99791.78
2023-01-26T21:31:36.599Z,99789.25
2023-01-26T21:34:06.741Z,99787.53
2023-01-26T21:36:35.430Z,99788.44
2023-01-26T21:39:04.235Z,99785.94
2023-01-26T21:41:51.937Z,99785.94
2023-01-26T21:44:23.296Z,99782.59
2023-01-26T21:46:54.433Z,99784.31
2023-01-26T21:49:25.772Z,99775.88
2023-01-26T21:52:12.597Z,99779.25
2023-01-26T21:54:41.759Z,99768.25
2023-01-26T21:57:25.892Z,99762.38
2023-01-26T21:59:55.156Z,99759.88
2023-01-26T22:02:24.730Z,99763.28
2023-01-26T22:04:55.100Z,99759.94
2023-01-26T22:07:23.832Z,99763.28
2023-01-26T22:09:52.479Z,99759.09
2023-01-26T22:12:23.018Z,99758.22
2023-01-26T22:14:52.536Z,99757.34
2023-01-26T22:17:23.778Z,99757.34
2023-01-26T22:19:52.711Z,99752.28
2023-01-26T22:22:22.780Z,99752.28
2023-01-26T22:24:51.722Z,99752.28
2023-01-26T22:27:20.365Z,99748.91
2023-01-26T22:29:49.065Z,99755.69
2023-01-26T22:32:17.634Z,99750.56
2023-01-26T22:34:46.279Z,99748.91
2023-01-26T22:37:15.364Z,99748.91
2023-01-26T22:39:45.386Z,99748.91
2023-01-26T22:42:13.988Z,99755.66
2023-01-26T22:44:42.575Z,99753.97
2023-01-26T22:47:11.207Z,99748.91
2023-01-26T22:49:39.812Z,99745.47
2023-01-26T22:52:08.480Z,99752.19
2023-01-26T22:54:37.125Z,99750.53
2023-01-26T22:57:07.093Z,99746.31
2023-01-26T22:59:35.742Z,99743.75
2023-01-26T23:02:04.552Z,99745.41
2023-01-26T23:04:33.322Z,99743.75
2023-01-26T23:07:01.990Z,99745.41
2023-01-26T23:09:33.831Z,99736.97
2023-01-26T23:12:03.146Z,99736.16
2023-01-26T23:14:35.133Z,99732.78
2023-01-26T23:17:04.790Z,99738.69
2023-01-26T23:19:33.702Z,99742.88
2023-01-26T23:22:02.340Z,99743.75
2023-01-26T23:24:31.066Z,99738.69
2023-01-26T23:26:59.806Z,99745.47
2023-01-26T23:29:28.595Z,99740.41
2023-01-26T23:31:58.638Z,99732.88
2023-01-26T23:34:27.286Z,99732.13
2023-01-26T23:36:55.940Z,99735.47
2023-01-26T23:39:24.669Z,99732.06
2023-01-26T23:41:53.443Z,99731.19
2023-01-26T23:44:22.165Z,99730.28
2023-01-26T23:46:51.181Z,99728.66
2023-01-26T23:49:21.595Z,99730.28
2023-01-26T23:51:50.216Z,99733.72
2023-01-26T23:54:18.959Z,99737.13
2023-01-26T23:56:47.597Z,99737.88
2023-01-26T23:59:16.343Z,99742.94
